sensor_id;sensor_type;location;lat;lon;timestamp;temperature;humidity
15113;DHT22;7657;50.140;7.076;2023-05-10T00:01:43;13.30;99.90
15113;DHT22;7657;50.140;7.076;2023-05-10T00:04:10;13.30;99.90
15113;DHT22;7657;50.140;7.076;2023-05-10T00:06:38;13.20;99.90
15113;DHT22;7657;50.140;7.076;2023-05-10T00:09:05;13.30;99.90
15113;DHT22;7657;50.140;7.076;2023-05-10T00:11:32;13.30;99.90
15113;DHT22;7657;50.140;7.076;2023-05-10T00:13:59;13.30;99.90
15113;DHT22;7657;50.140;7.076;2023-05-10T00:16:26;13.30;99.90
15113;DHT22;7657;50.140;7.076;2023-05-10T00:18:53;13.30;99.90
15113;DHT22;7657;50.140;7.076;2023-05-10T00:21:19;13.30;99.90
15113;DHT22;7657;50.140;7.076;2023-05-10T00:23:48;13.30;99.90
15113;DHT22;7657;50.140;7.076;2023-05-10T00:26:15;13.30;99.90
15113;DHT22;7657;50.140;7.076;2023-05-10T00:28:42;13.30;99.90
15113;DHT22;7657;50.140;7.076;2023-05-10T00:31:08;13.30;99.90
15113;DHT22;7657;50.140;7.076;2023-05-10T00:33:35;13.30;99.90
15113;DHT22;7657;50.140;7.076;2023-05-10T00:36:03;13.20;99.90
15113;DHT22;7657;50.140;7.076;2023-05-10T00:38:33;13.20;99.90
15113;DHT22;7657;50.140;7.076;2023-05-10T00:41:01;13.00;99.90
15113;DHT22;7657;50.140;7.076;2023-05-10T00:43:28;13.10;99.90
15113;DHT22;7657;50.140;7.076;2023-05-10T00:45:55;13.00;99.90
15113;DHT22;7657;50.140;7.076;2023-05-10T00:48:22;13.00;99.90
15113;DHT22;7657;50.140;7.076;2023-05-10T00:50:49;13.10;99.90
15113;DHT22;7657;50.140;7.076;2023-05-10T00:53:16;13.10;99.90
15113;DHT22;7657;50.140;7.076;2023-05-10T00:55:44;13.20;99.90
15113;DHT22;7657;50.140;7.076;2023-05-10T00:58:12;13.20;99.90
15113;DHT22;7657;50.140;7.076;2023-05-10T01:00:41;13.40;99.90
15113;DHT22;7657;50.140;7.076;2023-05-10T01:03:09;13.50;99.90
15113;DHT22;7657;50.140;7.076;2023-05-10T01:05:36;13.50;99.90
15113;DHT22;7657;50.140;7.076;2023-05-10T01:08:04;13.60;99.90
15113;DHT22;7657;50.140;7.076;2023-05-10T01:10:32;13.50;99.90
15113;DHT22;7657;50.140;7.076;2023-05-10T01:12:59;13.60;99.90
15113;DHT22;7657;50.140;7.076;2023-05-10T01:15:27;13.40;99.90
15113;DHT22;7657;50.140;7.076;2023-05-10T01:17:55;13.40;99.90
15113;DHT22;7657;50.140;7.076;2023-05-10T01:20:23;13.50;99.90
15113;DHT22;7657;50.140;7.076;2023-05-10T01:23:10;13.50;99.90
15113;DHT22;7657;50.140;7.076;2023-05-10T01:26:03;13.40;99.90
15113;DHT22;7657;50.140;7.076;2023-05-10T01:28:58;13.50;99.90
15113;DHT22;7657;50.140;7.076;2023-05-10T01:34:35;13.60;99.90
15113;DHT22;7657;50.140;7.076;2023-05-10T01:37:06;13.60;99.90
15113;DHT22;7657;50.140;7.076;2023-05-10T01:39:43;13.50;99.90
15113;DHT22;7657;50.140;7.076;2023-05-10T01:42:16;13.50;99.90
15113;DHT22;7657;50.140;7.076;2023-05-10T01:44:51;13.50;99.90
15113;DHT22;7657;50.140;7.076;2023-05-10T01:47:26;13.40;99.90
15113;DHT22;7657;50.140;7.076;2023-05-10T01:50:02;13.40;99.90
15113;DHT22;7657;50.140;7.076;2023-05-10T01:52:31;13.40;99.90
15113;DHT22;7657;50.140;7.076;2023-05-10T01:55:01;13.40;99.90
15113;DHT22;7657;50.140;7.076;2023-05-10T01:57:33;13.30;99.90
15113;DHT22;7657;50.140;7.076;2023-05-10T02:00:01;13.20;99.90
15113;DHT22;7657;50.140;7.076;2023-05-10T02:02:30;13.20;99.90
15113;DHT22;7657;50.140;7.076;2023-05-10T02:05:03;13.20;99.90
15113;DHT22;7657;50.140;7.076;2023-05-10T02:07:32;13.10;99.90
15113;DHT22;7657;50.140;7.076;2023-05-10T02:10:02;13.10;99.90
15113;DHT22;7657;50.140;7.076;2023-05-10T02:12:30;13.10;99.90
15113;DHT22;7657;50.140;7.076;2023-05-10T02:14:59;13.10;99.90
15113;DHT22;7657;50.140;7.076;2023-05-10T02:17:27;13.20;99.90
15113;DHT22;7657;50.140;7.076;2023-05-10T02:19:56;13.00;99.90
15113;DHT22;7657;50.140;7.076;2023-05-10T02:22:27;12.90;99.90
15113;DHT22;7657;50.140;7.076;2023-05-10T02:24:55;12.90;99.90
15113;DHT22;7657;50.140;7.076;2023-05-10T02:27:23;12.90;99.90
15113;DHT22;7657;50.140;7.076;2023-05-10T02:29:51;12.90;99.90
15113;DHT22;7657;50.140;7.076;2023-05-10T02:32:18;12.90;99.90
15113;DHT22;7657;50.140;7.076;2023-05-10T02:34:46;12.80;99.90
15113;DHT22;7657;50.140;7.076;2023-05-10T02:37:19;12.80;99.90
15113;DHT22;7657;50.140;7.076;2023-05-10T02:39:48;12.80;99.90
15113;DHT22;7657;50.140;7.076;2023-05-10T02:42:17;12.80;99.90
15113;DHT22;7657;50.140;7.076;2023-05-10T02:44:46;12.80;99.90
15113;DHT22;7657;50.140;7.076;2023-05-10T02:47:13;12.70;99.90
15113;DHT22;7657;50.140;7.076;2023-05-10T02:49:40;12.70;99.90
15113;DHT22;7657;50.140;7.076;2023-05-10T02:52:07;12.70;99.90
15113;DHT22;7657;50.140;7.076;2023-05-10T02:54:40;12.70;99.90
15113;DHT22;7657;50.140;7.076;2023-05-10T02:57:12;12.70;99.90
15113;DHT22;7657;50.140;7.076;2023-05-10T02:59:43;12.60;99.90
15113;DHT22;7657;50.140;7.076;2023-05-10T03:02:11;12.60;99.90
15113;DHT22;7657;50.140;7.076;2023-05-10T03:04:38;12.60;99.90
15113;DHT22;7657;50.140;7.076;2023-05-10T03:07:05;12.60;99.90
15113;DHT22;7657;50.140;7.076;2023-05-10T03:09:33;12.50;99.90
15113;DHT22;7657;50.140;7.076;2023-05-10T03:12:04;12.50;99.90
15113;DHT22;7657;50.140;7.076;2023-05-10T03:14:44;12.50;99.90
15113;DHT22;7657;50.140;7.076;2023-05-10T03:17:19;12.50;99.90
15113;DHT22;7657;50.140;7.076;2023-05-10T03:19:53;12.60;99.90
15113;DHT22;7657;50.140;7.076;2023-05-10T03:22:24;12.50;99.90
15113;DHT22;7657;50.140;7.076;2023-05-10T03:24:55;12.40;99.90
15113;DHT22;7657;50.140;7.076;2023-05-10T03:27:23;12.40;99.90
15113;DHT22;7657;50.140;7.076;2023-05-10T03:29:53;12.30;99.90
15113;DHT22;7657;50.140;7.076;2023-05-10T03:32:21;12.30;99.90
15113;DHT22;7657;50.140;7.076;2023-05-10T03:34:48;12.20;99.90
15113;DHT22;7657;50.140;7.076;2023-05-10T03:37:15;12.20;99.90
15113;DHT22;7657;50.140;7.076;2023-05-10T03:39:42;12.10;99.90
15113;DHT22;7657;50.140;7.076;2023-05-10T03:42:09;12.10;99.90
15113;DHT22;7657;50.140;7.076;2023-05-10T03:44:37;12.10;99.90
15113;DHT22;7657;50.140;7.076;2023-05-10T03:47:05;12.10;99.90
15113;DHT22;7657;50.140;7.076;2023-05-10T03:49:32;12.20;99.90
15113;DHT22;7657;50.140;7.076;2023-05-10T03:51:59;12.10;99.90
15113;DHT22;7657;50.140;7.076;2023-05-10T03:54:26;12.10;99.90
15113;DHT22;7657;50.140;7.076;2023-05-10T03:56:53;12.20;99.90
15113;DHT22;7657;50.140;7.076;2023-05-10T03:59:20;12.10;99.90
15113;DHT22;7657;50.140;7.076;2023-05-10T04:01:47;12.10;99.90
15113;DHT22;7657;50.140;7.076;2023-05-10T04:04:15;12.10;99.90
15113;DHT22;7657;50.140;7.076;2023-05-10T04:06:43;12.10;99.90
15113;DHT22;7657;50.140;7.076;2023-05-10T04:09:10;12.10;99.90
15113;DHT22;7657;50.140;7.076;2023-05-10T04:11:37;12.10;99.90
15113;DHT22;7657;50.140;7.076;2023-05-10T04:14:04;12.10;99.90
15113;DHT22;7657;50.140;7.076;2023-05-10T04:16:31;12.20;99.90
15113;DHT22;7657;50.140;7.076;2023-05-10T04:18:58;12.30;99.90
15113;DHT22;7657;50.140;7.076;2023-05-10T04:21:26;12.30;99.90
15113;DHT22;7657;50.140;7.076;2023-05-10T04:23:54;12.40;99.90
15113;DHT22;7657;50.140;7.076;2023-05-10T04:26:20;12.50;99.90
15113;DHT22;7657;50.140;7.076;2023-05-10T04:28:48;12.50;99.90
15113;DHT22;7657;50.140;7.076;2023-05-10T04:31:14;12.50;99.90
15113;DHT22;7657;50.140;7.076;2023-05-10T04:33:41;12.40;99.90
15113;DHT22;7657;50.140;7.076;2023-05-10T04:36:08;12.40;99.90
15113;DHT22;7657;50.140;7.076;2023-05-10T04:38:37;12.30;99.90
15113;DHT22;7657;50.140;7.076;2023-05-10T04:41:04;12.30;99.90
15113;DHT22;7657;50.140;7.076;2023-05-10T04:43:31;12.30;99.90
15113;DHT22;7657;50.140;7.076;2023-05-10T04:45:58;12.40;99.90
15113;DHT22;7657;50.140;7.076;2023-05-10T04:48:25;12.40;99.90
15113;DHT22;7657;50.140;7.076;2023-05-10T04:50:52;12.50;99.90
15113;DHT22;7657;50.140;7.076;2023-05-10T04:53:19;12.40;99.90
15113;DHT22;7657;50.140;7.076;2023-05-10T04:55:47;12.50;99.90
15113;DHT22;7657;50.140;7.076;2023-05-10T04:58:14;12.50;99.90
15113;DHT22;7657;50.140;7.076;2023-05-10T05:00:41;12.60;99.90
15113;DHT22;7657;50.140;7.076;2023-05-10T05:03:08;12.60;99.90
15113;DHT22;7657;50.140;7.076;2023-05-10T05:05:35;12.60;99.90
15113;DHT22;7657;50.140;7.076;2023-05-10T05:08:02;12.60;99.90
15113;DHT22;7657;50.140;7.076;2023-05-10T05:10:29;12.60;99.90
15113;DHT22;7657;50.140;7.076;2023-05-10T05:12:57;12.70;99.90
15113;DHT22;7657;50.140;7.076;2023-05-10T05:15:24;12.70;99.90
15113;DHT22;7657;50.140;7.076;2023-05-10T05:17:51;12.60;99.90
15113;DHT22;7657;50.140;7.076;2023-05-10T05:20:18;12.60;99.90
15113;DHT22;7657;50.140;7.076;2023-05-10T05:22:45;12.60;99.90
15113;DHT22;7657;50.140;7.076;2023-05-10T05:25:12;12.70;99.90
15113;DHT22;7657;50.140;7.076;2023-05-10T05:27:39;12.80;99.90
15113;DHT22;7657;50.140;7.076;2023-05-10T05:30:08;12.80;99.90
15113;DHT22;7657;50.140;7.076;2023-05-10T05:32:35;12.90;99.90
15113;DHT22;7657;50.140;7.076;2023-05-10T05:35:02;12.90;99.90
15113;DHT22;7657;50.140;7.076;2023-05-10T05:37:29;12.90;99.90
15113;DHT22;7657;50.140;7.076;2023-05-10T05:39:56;13.00;99.90
15113;DHT22;7657;50.140;7.076;2023-05-10T05:42:24;13.00;99.90
15113;DHT22;7657;50.140;7.076;2023-05-10T05:44:51;13.00;99.90
15113;DHT22;7657;50.140;7.076;2023-05-10T05:47:19;13.00;99.90
15113;DHT22;7657;50.140;7.076;2023-05-10T05:49:46;13.10;99.90
15113;DHT22;7657;50.140;7.076;2023-05-10T05:52:13;13.20;99.90
15113;DHT22;7657;50.140;7.076;2023-05-10T05:54:40;13.10;99.90
15113;DHT22;7657;50.140;7.076;2023-05-10T05:57:07;13.20;99.90
15113;DHT22;7657;50.140;7.076;2023-05-10T05:59:34;13.10;99.90
15113;DHT22;7657;50.140;7.076;2023-05-10T06:02:01;13.20;99.90
15113;DHT22;7657;50.140;7.076;2023-05-10T06:04:29;13.30;99.90
15113;DHT22;7657;50.140;7.076;2023-05-10T06:06:56;13.30;99.90
15113;DHT22;7657;50.140;7.076;2023-05-10T06:09:23;13.30;99.90
15113;DHT22;7657;50.140;7.076;2023-05-10T06:11:50;13.30;99.90
15113;DHT22;7657;50.140;7.076;2023-05-10T06:14:17;13.40;99.90
15113;DHT22;7657;50.140;7.076;2023-05-10T06:16:44;13.50;99.90
15113;DHT22;7657;50.140;7.076;2023-05-10T06:19:10;13.50;99.90
15113;DHT22;7657;50.140;7.076;2023-05-10T06:21:39;13.40;99.90
15113;DHT22;7657;50.140;7.076;2023-05-10T06:24:06;13.30;99.90
15113;DHT22;7657;50.140;7.076;2023-05-10T06:26:33;13.30;99.90
15113;DHT22;7657;50.140;7.076;2023-05-10T06:29:00;13.40;99.90
15113;DHT22;7657;50.140;7.076;2023-05-10T06:31:27;13.40;99.90
15113;DHT22;7657;50.140;7.076;2023-05-10T06:33:54;13.40;99.90
15113;DHT22;7657;50.140;7.076;2023-05-10T06:36:20;13.40;99.90
15113;DHT22;7657;50.140;7.076;2023-05-10T06:38:50;13.50;99.90
15113;DHT22;7657;50.140;7.076;2023-05-10T06:41:17;13.40;99.90
15113;DHT22;7657;50.140;7.076;2023-05-10T06:43:44;13.40;99.90
15113;DHT22;7657;50.140;7.076;2023-05-10T06:46:11;13.50;99.90
15113;DHT22;7657;50.140;7.076;2023-05-10T06:48:38;13.60;99.90
15113;DHT22;7657;50.140;7.076;2023-05-10T06:51:05;13.60;99.90
15113;DHT22;7657;50.140;7.076;2023-05-10T06:53:32;13.50;99.90
15113;DHT22;7657;50.140;7.076;2023-05-10T06:56:00;13.40;99.90
15113;DHT22;7657;50.140;7.076;2023-05-10T06:58:28;13.40;99.90
15113;DHT22;7657;50.140;7.076;2023-05-10T07:01:02;13.30;99.90
15113;DHT22;7657;50.140;7.076;2023-05-10T07:03:29;13.30;99.90
15113;DHT22;7657;50.140;7.076;2023-05-10T07:06:00;13.40;99.90
15113;DHT22;7657;50.140;7.076;2023-05-10T07:08:29;13.50;99.90
15113;DHT22;7657;50.140;7.076;2023-05-10T07:11:01;13.50;99.90
15113;DHT22;7657;50.140;7.076;2023-05-10T07:13:29;13.50;99.90
15113;DHT22;7657;50.140;7.076;2023-05-10T07:15:56;13.50;99.90
15113;DHT22;7657;50.140;7.076;2023-05-10T07:18:23;13.40;99.90
15113;DHT22;7657;50.140;7.076;2023-05-10T07:20:50;13.20;99.90
15113;DHT22;7657;50.140;7.076;2023-05-10T07:23:17;13.10;99.90
15113;DHT22;7657;50.140;7.076;2023-05-10T07:25:45;13.10;99.90
15113;DHT22;7657;50.140;7.076;2023-05-10T07:28:14;13.20;99.90
15113;DHT22;7657;50.140;7.076;2023-05-10T07:30:42;13.10;99.90
15113;DHT22;7657;50.140;7.076;2023-05-10T07:33:10;13.10;99.90
15113;DHT22;7657;50.140;7.076;2023-05-10T07:35:37;13.20;99.90
15113;DHT22;7657;50.140;7.076;2023-05-10T07:38:04;13.20;99.90
15113;DHT22;7657;50.140;7.076;2023-05-10T07:40:31;13.10;99.90
15113;DHT22;7657;50.140;7.076;2023-05-10T07:42:58;13.10;99.90
15113;DHT22;7657;50.140;7.076;2023-05-10T07:45:28;13.20;99.90
15113;DHT22;7657;50.140;7.076;2023-05-10T07:47:55;13.10;99.90
15113;DHT22;7657;50.140;7.076;2023-05-10T07:50:22;13.20;99.90
15113;DHT22;7657;50.140;7.076;2023-05-10T07:52:49;13.20;99.90
15113;DHT22;7657;50.140;7.076;2023-05-10T07:55:18;13.30;99.90
15113;DHT22;7657;50.140;7.076;2023-05-10T07:57:46;13.20;99.90
15113;DHT22;7657;50.140;7.076;2023-05-10T08:00:17;13.30;99.90
15113;DHT22;7657;50.140;7.076;2023-05-10T08:02:46;13.50;99.90
15113;DHT22;7657;50.140;7.076;2023-05-10T08:05:13;13.40;99.90
15113;DHT22;7657;50.140;7.076;2023-05-10T08:07:40;13.50;99.90
15113;DHT22;7657;50.140;7.076;2023-05-10T08:10:09;13.60;99.90
15113;DHT22;7657;50.140;7.076;2023-05-10T08:12:36;13.60;99.90
15113;DHT22;7657;50.140;7.076;2023-05-10T08:15:04;13.60;99.90
15113;DHT22;7657;50.140;7.076;2023-05-10T08:17:32;13.60;99.90
15113;DHT22;7657;50.140;7.076;2023-05-10T08:20:00;13.50;99.90
15113;DHT22;7657;50.140;7.076;2023-05-10T08:22:27;13.50;99.90
15113;DHT22;7657;50.140;7.076;2023-05-10T08:24:54;13.60;99.90
15113;DHT22;7657;50.140;7.076;2023-05-10T08:27:21;13.60;99.90
15113;DHT22;7657;50.140;7.076;2023-05-10T08:29:50;13.40;99.90
15113;DHT22;7657;50.140;7.076;2023-05-10T08:32:18;13.40;99.90
15113;DHT22;7657;50.140;7.076;2023-05-10T08:34:44;13.30;99.90
15113;DHT22;7657;50.140;7.076;2023-05-10T08:37:13;13.30;99.90
15113;DHT22;7657;50.140;7.076;2023-05-10T08:39:40;13.30;99.90
15113;DHT22;7657;50.140;7.076;2023-05-10T08:42:07;13.10;99.90
15113;DHT22;7657;50.140;7.076;2023-05-10T08:44:35;13.20;99.90
15113;DHT22;7657;50.140;7.076;2023-05-10T08:47:04;13.20;99.90
15113;DHT22;7657;50.140;7.076;2023-05-10T08:49:32;13.30;99.90
15113;DHT22;7657;50.140;7.076;2023-05-10T08:52:02;13.50;99.90
15113;DHT22;7657;50.140;7.076;2023-05-10T08:54:33;13.60;99.90
15113;DHT22;7657;50.140;7.076;2023-05-10T08:57:00;13.60;99.90
15113;DHT22;7657;50.140;7.076;2023-05-10T08:59:28;13.60;99.90
15113;DHT22;7657;50.140;7.076;2023-05-10T09:01:57;13.70;99.90
15113;DHT22;7657;50.140;7.076;2023-05-10T09:04:25;13.60;99.90
15113;DHT22;7657;50.140;7.076;2023-05-10T09:06:52;13.60;99.90
15113;DHT22;7657;50.140;7.076;2023-05-10T09:09:19;13.50;99.90
15113;DHT22;7657;50.140;7.076;2023-05-10T09:11:48;13.50;99.90
15113;DHT22;7657;50.140;7.076;2023-05-10T09:14:15;13.60;99.90
15113;DHT22;7657;50.140;7.076;2023-05-10T09:16:42;13.70;99.90
15113;DHT22;7657;50.140;7.076;2023-05-10T09:19:09;13.80;99.90
15113;DHT22;7657;50.140;7.076;2023-05-10T09:21:37;14.00;99.90
15113;DHT22;7657;50.140;7.076;2023-05-10T09:24:05;14.20;99.90
15113;DHT22;7657;50.140;7.076;2023-05-10T09:26:32;14.20;99.90
15113;DHT22;7657;50.140;7.076;2023-05-10T09:29:04;14.20;99.90
15113;DHT22;7657;50.140;7.076;2023-05-10T09:31:50;14.10;99.90
15113;DHT22;7657;50.140;7.076;2023-05-10T09:34:21;14.20;99.90
15113;DHT22;7657;50.140;7.076;2023-05-10T09:36:53;14.30;99.90
15113;DHT22;7657;50.140;7.076;2023-05-10T09:39:20;14.20;99.90
15113;DHT22;7657;50.140;7.076;2023-05-10T09:41:47;14.00;99.90
15113;DHT22;7657;50.140;7.076;2023-05-10T09:44:18;14.00;99.90
15113;DHT22;7657;50.140;7.076;2023-05-10T09:46:49;14.10;99.90
15113;DHT22;7657;50.140;7.076;2023-05-10T09:49:18;14.10;99.90
15113;DHT22;7657;50.140;7.076;2023-05-10T09:51:45;14.10;99.90
15113;DHT22;7657;50.140;7.076;2023-05-10T09:54:13;14.20;99.90
15113;DHT22;7657;50.140;7.076;2023-05-10T09:56:41;14.10;99.90
15113;DHT22;7657;50.140;7.076;2023-05-10T09:59:09;14.20;99.90
15113;DHT22;7657;50.140;7.076;2023-05-10T10:01:38;14.40;99.90
15113;DHT22;7657;50.140;7.076;2023-05-10T10:04:10;14.30;99.90
15113;DHT22;7657;50.140;7.076;2023-05-10T10:06:37;14.30;99.90
15113;DHT22;7657;50.140;7.076;2023-05-10T10:09:05;14.40;99.90
15113;DHT22;7657;50.140;7.076;2023-05-10T10:11:34;14.60;99.90
15113;DHT22;7657;50.140;7.076;2023-05-10T10:14:01;14.70;99.90
15113;DHT22;7657;50.140;7.076;2023-05-10T10:16:29;14.80;99.90
15113;DHT22;7657;50.140;7.076;2023-05-10T10:18:57;15.00;99.90
15113;DHT22;7657;50.140;7.076;2023-05-10T10:21:24;15.10;99.90
15113;DHT22;7657;50.140;7.076;2023-05-10T10:23:51;15.10;99.90
15113;DHT22;7657;50.140;7.076;2023-05-10T10:26:19;15.10;99.90
15113;DHT22;7657;50.140;7.076;2023-05-10T10:28:51;15.10;99.90
15113;DHT22;7657;50.140;7.076;2023-05-10T10:31:26;15.10;99.90
15113;DHT22;7657;50.140;7.076;2023-05-10T10:34:05;15.00;99.90
15113;DHT22;7657;50.140;7.076;2023-05-10T10:36:32;15.10;99.90
15113;DHT22;7657;50.140;7.076;2023-05-10T10:39:09;15.20;99.90
15113;DHT22;7657;50.140;7.076;2023-05-10T10:41:38;15.30;99.90
15113;DHT22;7657;50.140;7.076;2023-05-10T10:44:35;15.30;99.90
15113;DHT22;7657;50.140;7.076;2023-05-10T10:47:22;15.50;99.90
15113;DHT22;7657;50.140;7.076;2023-05-10T10:50:06;15.60;99.90
15113;DHT22;7657;50.140;7.076;2023-05-10T10:52:35;15.80;99.90
15113;DHT22;7657;50.140;7.076;2023-05-10T10:55:05;15.60;99.90
15113;DHT22;7657;50.140;7.076;2023-05-10T10:57:43;15.60;99.90
15113;DHT22;7657;50.140;7.076;2023-05-10T11:00:27;15.30;99.90
15113;DHT22;7657;50.140;7.076;2023-05-10T11:02:57;15.50;99.90
15113;DHT22;7657;50.140;7.076;2023-05-10T11:05:37;15.70;99.90
15113;DHT22;7657;50.140;7.076;2023-05-10T11:08:10;15.50;99.90
15113;DHT22;7657;50.140;7.076;2023-05-10T11:10:38;15.50;99.90
15113;DHT22;7657;50.140;7.076;2023-05-10T11:13:06;15.60;99.90
15113;DHT22;7657;50.140;7.076;2023-05-10T11:15:35;15.20;99.90
15113;DHT22;7657;50.140;7.076;2023-05-10T11:18:17;15.00;99.90
15113;DHT22;7657;50.140;7.076;2023-05-10T11:20:50;15.00;99.90
15113;DHT22;7657;50.140;7.076;2023-05-10T11:23:17;15.10;99.90
15113;DHT22;7657;50.140;7.076;2023-05-10T11:25:46;15.30;99.90
15113;DHT22;7657;50.140;7.076;2023-05-10T11:28:14;15.50;99.90
15113;DHT22;7657;50.140;7.076;2023-05-10T11:30:43;15.50;99.90
15113;DHT22;7657;50.140;7.076;2023-05-10T11:33:14;15.70;99.90
15113;DHT22;7657;50.140;7.076;2023-05-10T11:35:41;15.80;99.90
15113;DHT22;7657;50.140;7.076;2023-05-10T11:38:11;15.70;99.90
15113;DHT22;7657;50.140;7.076;2023-05-10T11:40:39;15.50;99.90
15113;DHT22;7657;50.140;7.076;2023-05-10T11:43:06;15.50;99.90
15113;DHT22;7657;50.140;7.076;2023-05-10T11:45:35;15.70;99.90
15113;DHT22;7657;50.140;7.076;2023-05-10T11:48:02;16.00;99.90
15113;DHT22;7657;50.140;7.076;2023-05-10T11:50:29;16.10;99.90
15113;DHT22;7657;50.140;7.076;2023-05-10T11:52:57;16.20;99.90
15113;DHT22;7657;50.140;7.076;2023-05-10T11:55:26;16.30;99.90
15113;DHT22;7657;50.140;7.076;2023-05-10T11:57:53;16.40;99.90
15113;DHT22;7657;50.140;7.076;2023-05-10T12:00:20;16.50;99.90
15113;DHT22;7657;50.140;7.076;2023-05-10T12:02:47;16.60;99.90
15113;DHT22;7657;50.140;7.076;2023-05-10T12:05:15;16.70;99.90
15113;DHT22;7657;50.140;7.076;2023-05-10T12:07:42;16.90;99.90
15113;DHT22;7657;50.140;7.076;2023-05-10T12:10:11;16.80;99.90
15113;DHT22;7657;50.140;7.076;2023-05-10T12:12:42;16.70;99.90
15113;DHT22;7657;50.140;7.076;2023-05-10T12:15:16;16.80;99.90
15113;DHT22;7657;50.140;7.076;2023-05-10T12:17:44;16.90;99.90
15113;DHT22;7657;50.140;7.076;2023-05-10T12:20:16;16.70;99.90
15113;DHT22;7657;50.140;7.076;2023-05-10T12:22:51;16.50;99.90
15113;DHT22;7657;50.140;7.076;2023-05-10T12:25:19;15.80;99.90
15113;DHT22;7657;50.140;7.076;2023-05-10T12:27:53;15.60;99.90
15113;DHT22;7657;50.140;7.076;2023-05-10T12:30:21;15.50;99.90
15113;DHT22;7657;50.140;7.076;2023-05-10T12:32:49;15.30;99.90
15113;DHT22;7657;50.140;7.076;2023-05-10T12:35:16;15.20;99.90
15113;DHT22;7657;50.140;7.076;2023-05-10T12:37:46;15.20;99.90
15113;DHT22;7657;50.140;7.076;2023-05-10T12:40:13;15.20;99.90
15113;DHT22;7657;50.140;7.076;2023-05-10T12:42:40;15.50;99.90
15113;DHT22;7657;50.140;7.076;2023-05-10T12:45:09;15.60;99.90
15113;DHT22;7657;50.140;7.076;2023-05-10T12:47:36;15.50;99.90
15113;DHT22;7657;50.140;7.076;2023-05-10T12:50:04;15.80;99.90
15113;DHT22;7657;50.140;7.076;2023-05-10T12:52:32;16.20;99.90
15113;DHT22;7657;50.140;7.076;2023-05-10T12:54:59;16.40;99.90
15113;DHT22;7657;50.140;7.076;2023-05-10T12:57:26;16.20;99.90
15113;DHT22;7657;50.140;7.076;2023-05-10T12:59:54;16.30;99.90
15113;DHT22;7657;50.140;7.076;2023-05-10T13:02:22;16.40;99.90
15113;DHT22;7657;50.140;7.076;2023-05-10T13:04:50;16.30;99.90
15113;DHT22;7657;50.140;7.076;2023-05-10T13:07:17;16.30;99.90
15113;DHT22;7657;50.140;7.076;2023-05-10T13:09:44;16.20;99.90
15113;DHT22;7657;50.140;7.076;2023-05-10T13:12:11;16.30;99.90
15113;DHT22;7657;50.140;7.076;2023-05-10T13:14:38;16.50;99.90
15113;DHT22;7657;50.140;7.076;2023-05-10T13:17:06;16.60;99.90
15113;DHT22;7657;50.140;7.076;2023-05-10T13:19:34;16.80;99.90
15113;DHT22;7657;50.140;7.076;2023-05-10T13:22:02;16.90;99.90
15113;DHT22;7657;50.140;7.076;2023-05-10T13:24:29;16.90;99.90
15113;DHT22;7657;50.140;7.076;2023-05-10T13:26:56;16.70;99.90
15113;DHT22;7657;50.140;7.076;2023-05-10T13:29:23;16.90;99.90
15113;DHT22;7657;50.140;7.076;2023-05-10T13:31:50;16.80;99.90
15113;DHT22;7657;50.140;7.076;2023-05-10T13:34:17;16.60;99.90
15113;DHT22;7657;50.140;7.076;2023-05-10T13:36:47;16.50;99.90
15113;DHT22;7657;50.140;7.076;2023-05-10T13:39:14;16.50;99.90
15113;DHT22;7657;50.140;7.076;2023-05-10T13:41:41;16.40;99.90
15113;DHT22;7657;50.140;7.076;2023-05-10T13:44:08;16.50;99.90
15113;DHT22;7657;50.140;7.076;2023-05-10T13:46:36;16.40;99.90
15113;DHT22;7657;50.140;7.076;2023-05-10T13:49:04;16.60;99.90
15113;DHT22;7657;50.140;7.076;2023-05-10T13:51:30;16.70;99.90
15113;DHT22;7657;50.140;7.076;2023-05-10T13:53:59;16.60;99.90
15113;DHT22;7657;50.140;7.076;2023-05-10T13:56:26;16.40;99.90
15113;DHT22;7657;50.140;7.076;2023-05-10T13:58:53;16.70;99.90
15113;DHT22;7657;50.140;7.076;2023-05-10T14:01:20;17.20;99.90
15113;DHT22;7657;50.140;7.076;2023-05-10T14:03:47;17.20;99.90
15113;DHT22;7657;50.140;7.076;2023-05-10T14:06:14;17.30;99.90
15113;DHT22;7657;50.140;7.076;2023-05-10T14:08:41;17.40;99.90
15113;DHT22;7657;50.140;7.076;2023-05-10T14:11:10;17.60;99.90
15113;DHT22;7657;50.140;7.076;2023-05-10T14:13:37;17.30;99.90
15113;DHT22;7657;50.140;7.076;2023-05-10T14:16:04;17.00;99.90
15113;DHT22;7657;50.140;7.076;2023-05-10T14:18:31;16.90;99.90
15113;DHT22;7657;50.140;7.076;2023-05-10T14:20:58;16.80;99.90
15113;DHT22;7657;50.140;7.076;2023-05-10T14:23:25;17.10;99.90
15113;DHT22;7657;50.140;7.076;2023-05-10T14:25:54;17.50;99.90
15113;DHT22;7657;50.140;7.076;2023-05-10T14:28:25;17.70;99.90
15113;DHT22;7657;50.140;7.076;2023-05-10T14:30:52;17.60;99.90
15113;DHT22;7657;50.140;7.076;2023-05-10T14:33:19;18.10;99.90
15113;DHT22;7657;50.140;7.076;2023-05-10T14:35:46;18.40;99.90
15113;DHT22;7657;50.140;7.076;2023-05-10T14:38:13;18.70;99.90
15113;DHT22;7657;50.140;7.076;2023-05-10T14:40:40;18.20;99.90
15113;DHT22;7657;50.140;7.076;2023-05-10T14:43:07;17.90;99.90
15113;DHT22;7657;50.140;7.076;2023-05-10T14:45:36;17.90;99.90
15113;DHT22;7657;50.140;7.076;2023-05-10T14:48:03;17.80;99.90
15113;DHT22;7657;50.140;7.076;2023-05-10T14:50:30;18.00;99.90
15113;DHT22;7657;50.140;7.076;2023-05-10T14:52:57;18.60;99.90
15113;DHT22;7657;50.140;7.076;2023-05-10T14:55:24;18.60;99.90
15113;DHT22;7657;50.140;7.076;2023-05-10T14:57:51;19.20;99.90
15113;DHT22;7657;50.140;7.076;2023-05-10T15:00:18;19.80;99.90
15113;DHT22;7657;50.140;7.076;2023-05-10T15:02:47;19.10;99.90
15113;DHT22;7657;50.140;7.076;2023-05-10T15:05:14;19.50;99.90
15113;DHT22;7657;50.140;7.076;2023-05-10T15:07:41;20.20;99.90
15113;DHT22;7657;50.140;7.076;2023-05-10T15:10:09;19.60;99.90
15113;DHT22;7657;50.140;7.076;2023-05-10T15:12:36;19.50;99.90
15113;DHT22;7657;50.140;7.076;2023-05-10T15:15:04;19.80;99.90
15113;DHT22;7657;50.140;7.076;2023-05-10T15:17:31;20.30;99.90
15113;DHT22;7657;50.140;7.076;2023-05-10T15:19:59;20.50;99.90
15113;DHT22;7657;50.140;7.076;2023-05-10T15:22:28;21.00;99.90
15113;DHT22;7657;50.140;7.076;2023-05-10T15:24:55;20.70;99.90
15113;DHT22;7657;50.140;7.076;2023-05-10T15:27:22;20.00;99.90
15113;DHT22;7657;50.140;7.076;2023-05-10T15:29:49;19.80;99.90
15113;DHT22;7657;50.140;7.076;2023-05-10T15:32:16;19.50;99.90
15113;DHT22;7657;50.140;7.076;2023-05-10T15:34:43;19.30;99.90
15113;DHT22;7657;50.140;7.076;2023-05-10T15:37:11;19.60;99.90
15113;DHT22;7657;50.140;7.076;2023-05-10T15:39:38;20.50;99.90
15113;DHT22;7657;50.140;7.076;2023-05-10T15:42:05;21.00;99.90
15113;DHT22;7657;50.140;7.076;2023-05-10T15:44:32;21.90;99.90
15113;DHT22;7657;50.140;7.076;2023-05-10T15:47:00;22.30;99.90
15113;DHT22;7657;50.140;7.076;2023-05-10T15:49:28;22.80;99.90
15113;DHT22;7657;50.140;7.076;2023-05-10T15:51:54;23.20;99.90
15113;DHT22;7657;50.140;7.076;2023-05-10T15:54:23;23.10;99.90
15113;DHT22;7657;50.140;7.076;2023-05-10T15:56:50;23.40;99.90